Time;durP1;ratioP1;P1;durP2;ratioP2;P2;SDS_P1;SDS_P2;PMS_P1;PMS_P2;Temp;Humidity;BMP_temperature;BMP_pressure;BME280_temperature;BME280_humidity;BME280_pressure;Samples;Min_cycle;Max_cycle;Signal;HPM_P1;HPM_P2
2022/09/08 00:00:33;;;;;;;6.80;4.28;;;;;;;18.67;54.10;100419.56;5043300;28;20119;-90
2022/09/08 00:03:13;;;;;;;9.43;3.35;;;;;;;18.71;53.88;100417.47;5066666;28;20076;-90
2022/09/08 00:06:03;;;;;;;8.02;3.30;;;;;;;18.73;54.12;100423.47;5058220;28;20067;-88
2022/09/08 00:08:34;;;;;;;8.75;2.83;;;;;;;18.67;54.05;100432.06;5051326;28;20094;-90
2022/09/08 00:11:17;;;;;;;5.35;3.38;;;;;;;18.68;53.90;100429.22;4985740;28;20088;-88
2022/09/08 00:14:02;;;;;;;13.95;3.67;;;;;;;18.68;53.88;100429.22;5040133;28;20041;-90
2022/09/08 00:16:39;;;;;;;5.65;3.15;;;;;;;18.62;53.91;100429.81;5047321;28;20043;-89
2022/09/08 00:19:22;;;;;;;12.75;4.53;;;;;;;18.57;54.07;100421.44;5029374;28;20152;-89
2022/09/08 00:22:10;;;;;;;61.10;24.10;;;;;;;18.55;54.14;100423.44;5072777;28;20122;-91
2022/09/08 00:24:44;;;;;;;93.28;34.45;;;;;;;18.52;54.15;100423.72;5049057;28;20071;-90
2022/09/08 00:27:22;;;;;;;40.53;13.57;;;;;;;18.45;54.16;100417.25;5039675;28;20049;-89
2022/09/08 00:30:07;;;;;;;22.83;8.75;;;;;;;18.46;54.08;100411.81;5053276;28;20095;-89
2022/09/08 00:32:37;;;;;;;14.55;4.80;;;;;;;18.50;54.15;100415.00;5048993;28;20064;-91
2022/09/08 00:35:14;;;;;;;11.13;4.22;;;;;;;18.42;54.07;100410.41;5036936;28;20044;-88
2022/09/08 00:37:52;;;;;;;9.20;4.10;;;;;;;18.45;53.95;100406.59;5062866;28;20040;-91
2022/09/08 00:40:25;;;;;;;16.33;4.55;;;;;;;18.46;53.68;100410.94;5062702;28;20054;-88
2022/09/08 00:43:21;;;;;;;11.90;3.70;;;;;;;18.44;53.70;100421.75;5049579;28;20074;-89
2022/09/08 00:45:52;;;;;;;7.47;3.53;;;;;;;18.43;53.60;100413.91;5064415;28;20123;-90
2022/09/08 00:48:21;;;;;;;11.23;3.63;;;;;;;18.36;54.20;100413.66;5063219;28;20387;-89
2022/09/08 00:50:58;;;;;;;8.77;3.33;;;;;;;18.31;54.06;100420.41;5063753;28;20040;-89
2022/09/08 00:53:37;;;;;;;7.20;3.13;;;;;;;18.29;53.77;100409.06;5053155;28;20047;-89
2022/09/08 00:56:12;;;;;;;6.78;3.47;;;;;;;18.32;53.82;100406.09;5054350;28;20039;-89
2022/09/08 00:58:42;;;;;;;5.03;2.97;;;;;;;18.36;53.76;100402.16;5064788;28;20060;-88
2022/09/08 01:01:18;;;;;;;8.95;3.25;;;;;;;18.39;53.40;100401.88;5071963;28;20067;-89
2022/09/08 01:04:13;;;;;;;10.00;3.90;;;;;;;18.28;54.05;100405.56;5066012;28;20046;-89
2022/09/08 01:13:14;;;;;;;12.45;3.25;;;;;;;18.18;53.78;100399.41;5038462;28;20048;-89
2022/09/08 01:15:45;;;;;;;8.00;3.45;;;;;;;18.12;54.09;100392.00;5044005;28;20054;-90
2022/09/08 01:18:20;;;;;;;7.70;3.05;;;;;;;18.08;54.13;100393.28;5013167;28;20083;-88
2022/09/08 01:20:59;;;;;;;9.25;3.05;;;;;;;18.08;53.92;100390.59;5025909;28;20080;-89
2022/09/08 01:23:53;;;;;;;9.60;3.20;;;;;;;18.09;53.84;100390.44;5081058;28;20063;-91
2022/09/08 01:26:50;;;;;;;11.07;3.25;;;;;;;18.04;54.00;100387.38;5059156;28;20052;-91
2022/09/08 01:29:23;;;;;;;11.80;3.17;;;;;;;18.01;53.89;100398.31;5065469;28;20072;-90
2022/09/08 01:31:53;;;;;;;6.07;3.17;;;;;;;18.07;53.50;100403.09;5058702;28;20091;-91
2022/09/08 01:34:24;;;;;;;7.03;3.40;;;;;;;18.00;53.62;100398.47;5039392;28;20055;-90
2022/09/08 01:36:52;;;;;;;7.63;3.72;;;;;;;18.00;53.60;100398.47;5048055;28;20042;-90
2022/09/08 01:39:20;;;;;;;9.00;3.25;;;;;;;17.92;54.13;100401.84;5027725;28;20044;-90
2022/09/08 01:41:51;;;;;;;9.85;3.25;;;;;;;17.88;53.70;100405.81;5058893;28;20513;-88
2022/09/08 01:44:19;;;;;;;4.80;2.75;;;;;;;17.89;53.64;100407.47;5043979;28;20047;-89
2022/09/08 01:46:47;;;;;;;8.98;3.63;;;;;;;17.92;53.65;100404.50;5032825;28;20068;-89
2022/09/08 01:49:19;;;;;;;15.38;3.45;;;;;;;17.87;53.70;100404.09;5026194;28;20048;-89
2022/09/08 01:51:47;;;;;;;9.15;3.22;;;;;;;17.84;53.90;100407.06;5044079;28;20047;-89
2022/09/08 01:54:15;;;;;;;9.15;3.03;;;;;;;17.81;53.50;100397.53;5028155;28;20051;-88
2022/09/08 01:56:42;;;;;;;12.05;3.35;;;;;;;17.84;53.72;100391.09;5046671;28;20051;-90
2022/09/08 01:59:11;;;;;;;12.15;2.90;;;;;;;17.80;53.64;100390.53;5032223;28;20148;-90
2022/09/08 02:01:40;;;;;;;7.93;3.25;;;;;;;17.88;53.26;100388.00;5059685;28;20040;-90
2022/09/08 02:04:09;;;;;;;10.95;3.80;;;;;;;17.85;53.43;100382.13;5046186;28;20052;-89
2022/09/08 02:06:42;;;;;;;6.28;2.80;;;;;;;17.71;53.91;100368.22;5031969;28;20115;-91
2022/09/08 02:09:14;;;;;;;14.60;2.92;;;;;;;17.65;54.25;100373.25;5009277;28;20106;-88
2022/09/08 02:11:48;;;;;;;12.48;3.22;;;;;;;17.56;54.21;100360.81;5041542;28;20100;-90
2022/09/08 02:14:23;;;;;;;8.55;3.28;;;;;;;17.46;53.98;100359.00;5065555;28;20559;-90
2022/09/08 02:16:55;;;;;;;11.13;3.47;;;;;;;17.42;54.16;100356.75;5064138;28;20040;-87
2022/09/08 02:19:34;;;;;;;6.18;3.05;;;;;;;17.38;53.99;100366.88;5027516;28;20072;-88
2022/09/08 02:22:07;;;;;;;5.00;2.90;;;;;;;17.37;54.30;100367.00;5050510;28;20075;-89
2022/09/08 02:24:37;;;;;;;10.13;2.90;;;;;;;17.34;54.03;100378.78;5037309;28;20036;-89
2022/09/08 02:27:05;;;;;;;7.55;2.92;;;;;;;17.29;54.10;100374.81;5043928;28;21671;-90
2022/09/08 02:29:34;;;;;;;6.35;2.70;;;;;;;17.28;54.23;100379.31;5038866;28;20048;-89
2022/09/08 02:32:02;;;;;;;5.80;2.70;;;;;;;17.29;54.02;100380.16;5044238;28;20143;-89
2022/09/08 02:34:29;;;;;;;8.50;2.58;;;;;;;17.25;53.87;100382.28;5049222;28;20130;-89
2022/09/08 02:36:57;;;;;;;6.53;2.80;;;;;;;17.20;54.04;100385.34;5035085;28;20036;-88
2022/09/08 02:39:25;;;;;;;6.70;3.30;;;;;;;17.17;54.21;100374.13;5034702;28;20048;-89
2022/09/08 02:41:53;;;;;;;10.27;3.10;;;;;;;17.10;54.61;100373.84;5068460;28;20059;-88
2022/09/08 02:44:21;;;;;;;6.05;3.42;;;;;;;17.09;54.34;100363.34;5026224;28;20041;-89
2022/09/08 02:46:49;;;;;;;3.65;2.63;;;;;;;17.05;54.42;100360.13;5042307;28;20048;-90
2022/09/08 02:49:17;;;;;;;12.25;3.13;;;;;;;16.98;54.35;100359.00;5040559;28;20108;-90
2022/09/08 02:51:44;;;;;;;5.90;2.70;;;;;;;17.01;54.30;100361.38;5043158;28;20040;-89
2022/09/08 02:54:12;;;;;;;7.45;2.70;;;;;;;17.12;53.68;100357.75;5034994;28;20069;-86
2022/09/08 02:56:40;;;;;;;7.82;2.83;;;;;;;17.10;53.80;100347.25;5028177;28;20056;-88
2022/09/08 02:59:09;;;;;;;5.90;2.97;;;;;;;17.04;53.84;100354.94;5024983;28;20164;-88
2022/09/08 03:01:37;;;;;;;12.52;2.75;;;;;;;17.02;53.67;100360.41;5023434;28;20111;-89
2022/09/08 03:04:06;;;;;;;7.47;3.42;;;;;;;17.04;53.40;100354.94;5043474;28;20041;-89
2022/09/08 03:06:34;;;;;;;5.72;2.65;;;;;;;16.95;53.51;100354.78;5057468;28;20061;-88
2022/09/08 03:09:02;;;;;;;7.13;2.58;;;;;;;16.86;53.86;100354.78;5057849;28;20078;-89
2022/09/08 03:11:31;;;;;;;4.57;2.45;;;;;;;16.87;53.83;100353.78;5058136;28;20071;-89
2022/09/08 03:14:00;;;;;;;7.82;3.08;;;;;;;16.89;53.60;100352.69;5028057;28;20048;-89
2022/09/08 03:16:27;;;;;;;9.55;3.10;;;;;;;16.87;53.68;100359.13;5029724;28;20395;-89
2022/09/08 03:18:55;;;;;;;7.82;2.80;;;;;;;16.79;53.98;100353.63;5029108;28;20555;-90
2022/09/08 03:21:23;;;;;;;7.05;2.88;;;;;;;16.71;54.16;100352.47;5025882;28;20036;-89
2022/09/08 03:23:50;;;;;;;6.55;2.78;;;;;;;16.70;53.87;100349.94;5039036;28;20041;-90
2022/09/08 03:26:22;;;;;;;7.18;2.95;;;;;;;16.62;54.12;100345.31;5044625;28;20086;-89
2022/09/08 03:28:52;;;;;;;5.78;2.80;;;;;;;16.57;54.23;100342.25;5041031;28;20063;-89
2022/09/08 03:31:20;;;;;;;8.88;2.75;;;;;;;16.53;54.40;100334.69;5040352;28;20091;-88
2022/09/08 03:33:53;;;;;;;8.77;2.65;;;;;;;16.58;54.16;100327.13;5042154;28;20391;-90
2022/09/08 03:36:21;;;;;;;7.30;2.83;;;;;;;16.60;53.84;100320.69;5045755;28;20056;-88
2022/09/08 03:38:48;;;;;;;7.28;3.20;;;;;;;16.62;53.66;100317.91;5035436;28;20108;-89
2022/09/08 03:41:18;;;;;;;6.93;3.00;;;;;;;16.50;53.92;100308.38;5030042;28;20106;-89
2022/09/08 03:43:47;;;;;;;8.20;2.80;;;;;;;16.45;54.18;100314.09;5043499;28;20127;-88
2022/09/08 03:46:16;;;;;;;4.70;2.90;;;;;;;16.48;53.84;100320.94;5026906;28;20053;-87
2022/09/08 03:48:44;;;;;;;5.15;2.45;;;;;;;16.45;53.91;100327.38;5040959;28;20073;-90
2022/09/08 03:51:25;;;;;;;6.43;2.97;;;;;;;16.52;53.75;100317.03;5040350;28;20045;-88
2022/09/08 03:54:46;;;;;;;5.43;2.78;;;;;;;16.49;53.66;100312.84;5045175;28;20052;-87
2022/09/08 03:56:46;;;;;;;6.60;3.00;;;;;;;16.52;53.46;100315.22;5073442;28;20054;-88
2022/09/08 03:59:15;;;;;;;6.72;3.28;;;;;;;16.52;53.46;100307.25;5057002;28;20031;-90
2022/09/08 04:01:43;;;;;;;6.20;2.95;;;;;;;16.52;53.20;100309.91;5092554;28;20037;-92
2022/09/08 04:04:11;;;;;;;8.63;3.15;;;;;;;16.46;53.27;100308.63;5056983;28;20488;-92
2022/09/08 04:06:41;;;;;;;9.13;3.05;;;;;;;16.47;53.32;100301.50;5032656;28;20037;-91
2022/09/08 04:09:10;;;;;;;9.52;3.20;;;;;;;16.41;53.37;100310.03;5030609;28;20063;-90
2022/09/08 04:11:42;;;;;;;6.70;2.88;;;;;;;16.38;53.59;100316.44;5047894;28;20052;-88
2022/09/08 04:14:10;;;;;;;6.35;3.25;;;;;;;16.43;53.24;100308.06;5045289;28;20037;-90
2022/09/08 04:16:39;;;;;;;6.07;3.08;;;;;;;16.46;53.10;100308.63;5029063;28;20108;-88
2022/09/08 04:19:07;;;;;;;7.65;3.13;;;;;;;16.43;53.05;100305.41;5043810;28;20033;-90
2022/09/08 04:21:35;;;;;;;10.50;3.10;;;;;;;16.43;53.31;100305.41;5045731;28;20068;-90
2022/09/08 04:24:07;;;;;;;6.00;2.75;;;;;;;16.36;53.20;100304.28;5030151;28;20037;-89
2022/09/08 04:26:35;;;;;;;8.98;3.63;;;;;;;16.37;53.07;100308.59;5040809;28;20128;-90
2022/09/08 04:29:03;;;;;;;13.65;3.33;;;;;;;16.36;53.26;100309.59;5069623;28;20457;-89
2022/09/08 04:31:38;;;;;;;8.38;3.53;;;;;;;16.34;53.48;100301.75;5036941;28;20538;-87
2022/09/08 04:34:10;;;;;;;6.10;2.65;;;;;;;16.33;52.95;100293.91;5071672;28;20069;-89
2022/09/08 04:36:45;;;;;;;5.03;2.90;;;;;;;16.35;53.02;100297.28;5046820;28;20072;-90
2022/09/08 04:39:19;;;;;;;10.35;3.10;;;;;;;16.26;53.59;100290.13;5024281;28;20139;-90
2022/09/08 04:41:54;;;;;;;4.13;2.63;;;;;;;16.16;54.00;100280.28;5045736;28;20082;-88
2022/09/08 04:44:22;;;;;;;7.57;3.40;;;;;;;16.14;54.12;100286.72;5069218;28;20113;-92
2022/09/08 04:46:55;;;;;;;14.52;3.95;;;;;;;16.12;53.65;100281.56;5070151;28;20040;-91
2022/09/08 04:49:23;;;;;;;7.65;3.42;;;;;;;16.11;53.81;100281.69;5078411;28;20053;-89
2022/09/08 04:51:52;;;;;;;8.23;3.75;;;;;;;16.17;53.75;100283.81;5052262;28;20132;-89
2022/09/08 04:54:22;;;;;;;7.78;3.63;;;;;;;16.18;53.56;100285.47;5033266;28;20513;-89
2022/09/08 04:56:50;;;;;;;9.77;3.80;;;;;;;16.24;53.40;100284.94;5039197;28;20098;-91
2022/09/08 04:59:18;;;;;;;12.35;2.97;;;;;;;16.25;53.46;100285.78;5025411;28;20563;-90
2022/09/08 05:01:46;;;;;;;10.15;3.10;;;;;;;16.25;53.39;100291.94;5042648;28;20044;-89
2022/09/08 05:04:15;;;;;;;9.55;3.30;;;;;;;16.30;53.44;100294.16;5042004;28;20107;-91
2022/09/08 05:06:44;;;;;;;8.98;3.10;;;;;;;16.26;53.41;100288.31;5058179;28;20136;-90
2022/09/08 05:09:11;;;;;;;7.97;3.30;;;;;;;16.24;53.33;100294.72;5045508;28;20036;-90
2022/09/08 05:11:40;;;;;;;8.80;3.40;;;;;;;16.27;53.33;100299.78;5040414;28;20056;-89
2022/09/08 05:14:07;;;;;;;7.30;3.65;;;;;;;16.34;52.70;100291.09;5055646;28;20132;-90
2022/09/08 05:16:36;;;;;;;7.38;3.00;;;;;;;16.44;52.89;100297.31;5031554;28;20064;-88
2022/09/08 05:19:05;;;;;;;8.35;3.67;;;;;;;16.43;52.87;100297.44;5024256;28;20058;-90
2022/09/08 05:21:35;;;;;;;7.38;3.33;;;;;;;16.37;53.00;100288.19;5033123;28;20070;-87
2022/09/08 05:24:07;;;;;;;11.73;3.67;;;;;;;16.37;53.11;100285.53;5047183;28;20394;-89
2022/09/08 05:26:35;;;;;;;9.30;3.50;;;;;;;16.37;53.48;100288.19;5056887;28;20055;-88
2022/09/08 05:29:07;;;;;;;9.70;3.22;;;;;;;16.34;53.04;100288.44;5024179;28;20578;-89
2022/09/08 05:31:36;;;;;;;15.02;3.47;;;;;;;16.35;53.27;100289.31;5022369;28;20047;-90
2022/09/08 05:34:04;;;;;;;7.40;4.13;;;;;;;16.37;53.06;100282.03;5016727;28;20764;-89
2022/09/08 05:36:34;;;;;;;8.20;3.67;;;;;;;16.43;52.81;100286.81;5060532;28;20109;-91
2022/09/08 05:39:05;;;;;;;7.75;4.22;;;;;;;16.47;53.02;100293.53;5038618;28;20139;-90
2022/09/08 05:41:37;;;;;;;9.80;3.55;;;;;;;16.45;52.99;100285.69;5048866;28;20048;-95
2022/09/08 05:44:18;;;;;;;8.98;3.67;;;;;;;16.44;53.23;100293.81;5048162;28;20052;-89
2022/09/08 05:46:46;;;;;;;10.00;4.10;;;;;;;16.38;53.31;100292.53;5033333;28;20045;-83
2022/09/08 05:49:13;;;;;;;9.25;3.60;;;;;;;16.41;53.32;100292.25;5026859;28;20033;-82
2022/09/08 05:51:41;;;;;;;10.10;3.35;;;;;;;16.45;52.93;100291.00;5067046;28;20099;-87
2022/09/08 05:54:09;;;;;;;11.68;3.50;;;;;;;16.50;53.11;100289.78;5054939;28;20099;-83
2022/09/08 05:56:36;;;;;;;8.45;3.85;;;;;;;16.57;52.90;100286.44;5048476;28;20046;-82
2022/09/08 05:59:04;;;;;;;11.70;3.45;;;;;;;16.63;52.72;100290.34;5023940;28;20677;-84
2022/09/08 06:01:33;;;;;;;13.52;3.95;;;;;;;16.62;53.21;100289.53;5034146;28;20047;-82
2022/09/08 06:04:01;;;;;;;15.60;3.90;;;;;;;16.59;53.06;100300.41;5033543;28;20080;-82
2022/09/08 06:10:37;;;;;;;13.40;3.78;;;;;;;16.67;53.04;100292.59;5062897;28;20442;-83
2022/09/08 06:13:05;;;;;;;7.82;3.38;;;;;;;16.66;53.02;100295.38;5049174;28;20439;-82
2022/09/08 06:15:33;;;;;;;7.22;4.22;;;;;;;16.66;53.12;100301.56;5003437;28;20048;-81
2022/09/08 06:18:01;;;;;;;11.32;4.03;;;;;;;16.63;53.51;100296.50;5034884;28;20055;-83
2022/09/08 06:20:28;;;;;;;12.40;4.38;;;;;;;16.63;53.48;100293.84;5041098;28;20044;-83
2022/09/08 06:22:55;;;;;;;7.45;3.65;;;;;;;16.69;52.96;100293.28;5021301;28;20093;-83
2022/09/08 06:25:23;;;;;;;8.73;4.25;;;;;;;16.75;52.70;100289.28;5017782;28;20400;-82
2022/09/08 06:28:13;;;;;;;13.60;3.92;;;;;;;16.78;52.92;100289.00;5044192;28;20066;-83
2022/09/08 06:30:40;;;;;;;8.35;4.35;;;;;;;16.79;53.01;100295.16;5050505;28;20032;-82
2022/09/08 06:33:29;;;;;;;6.30;3.58;;;;;;;16.80;53.14;100288.88;5038008;28;20139;-82
2022/09/08 06:36:02;;;;;;;10.98;3.63;;;;;;;16.80;53.13;100295.03;5030813;28;20040;-82
2022/09/08 06:38:34;;;;;;;13.25;3.55;;;;;;;16.83;53.41;100292.06;5046616;28;20131;-81
2022/09/08 06:41:11;;;;;;;14.55;4.13;;;;;;;16.80;53.62;100289.72;5018172;28;20053;-83
2022/09/08 06:43:42;;;;;;;6.43;3.42;;;;;;;16.85;53.03;100287.47;5020701;28;20630;-81
2022/09/08 06:46:22;;;;;;;8.63;3.63;;;;;;;16.85;53.83;100287.47;5038761;28;20419;-82
2022/09/08 06:48:51;;;;;;;9.00;4.47;;;;;;;16.79;54.02;100281.84;5026531;28;20091;-81
2022/09/08 06:51:27;;;;;;;8.63;3.75;;;;;;;16.81;54.11;100287.91;5023135;28;20107;-82
2022/09/08 06:54:09;;;;;;;6.00;3.50;;;;;;;16.87;54.00;100290.81;5027149;28;20091;-81
2022/09/08 06:56:39;;;;;;;12.52;4.13;;;;;;;16.89;53.62;100288.88;5022934;28;20099;-83
2022/09/08 07:03:38;;;;;;;9.30;4.05;;;;;;;17.04;53.47;100275.16;5052171;28;20049;-83
2022/09/08 07:06:09;;;;;;;9.25;3.80;;;;;;;17.03;53.84;100269.00;5034436;28;21137;-82
2022/09/08 07:09:04;;;;;;;8.07;4.03;;;;;;;17.05;53.66;100260.88;5032459;28;20076;-83
2022/09/08 07:11:53;;;;;;;7.43;3.80;;;;;;;17.11;53.57;100258.50;5055772;28;20098;-82
2022/09/08 07:14:58;;;;;;;9.48;4.13;;;;;;;17.19;53.37;100263.09;5028832;28;20056;-83
2022/09/08 07:17:30;;;;;;;12.13;4.20;;;;;;;17.14;54.12;100260.03;5053494;28;20094;-82
2022/09/08 07:19:57;;;;;;;14.65;3.72;;;;;;;17.18;53.94;100262.25;5021128;28;20071;-81
2022/09/08 07:22:44;;;;;;;13.00;4.10;;;;;;;17.23;54.05;100258.34;5036381;28;20053;-82
2022/09/08 07:25:39;;;;;;;8.43;3.85;;;;;;;17.32;54.09;100260.16;5039365;28;20116;-81
2022/09/08 07:28:41;;;;;;;9.98;4.40;;;;;;;17.40;54.30;100246.97;5058856;28;20048;-83
2022/09/08 07:31:19;;;;;;;8.52;4.03;;;;;;;17.39;54.02;100237.31;5018970;28;20112;-82
2022/09/08 07:34:05;;;;;;;11.20;4.72;;;;;;;17.37;54.70;100232.13;5042651;28;20040;-82
2022/09/08 07:36:39;;;;;;;8.95;4.10;;;;;;;17.41;54.39;100232.69;5034847;28;20181;-80
2022/09/08 07:39:13;;;;;;;9.60;4.10;;;;;;;17.52;54.00;100237.84;5033809;28;20047;-81
2022/09/08 07:41:45;;;;;;;7.43;4.25;;;;;;;17.54;54.55;100243.84;5054723;28;20048;-82
2022/09/08 07:44:18;;;;;;;7.93;4.20;;;;;;;17.55;54.49;100258.84;5044415;28;20150;-82
2022/09/08 07:47:09;;;;;;;12.85;4.30;;;;;;;17.64;54.36;100273.09;5019306;28;20673;-82
2022/09/08 07:49:55;;;;;;;11.38;4.40;;;;;;;17.72;53.95;100274.06;5052986;28;20103;-83
2022/09/08 07:52:43;;;;;;;9.35;5.63;;;;;;;17.78;53.95;100264.69;5050055;28;20049;-83
2022/09/08 07:55:17;;;;;;;13.68;4.40;;;;;;;17.85;53.77;100270.28;5031538;28;20599;-83
2022/09/08 07:58:14;;;;;;;12.13;4.50;;;;;;;17.92;54.29;100266.03;5039864;28;20056;-81
2022/09/08 08:01:01;;;;;;;10.73;4.53;;;;;;;17.98;54.29;100276.13;5045903;28;20116;-81
2022/09/08 08:04:03;;;;;;;10.48;4.28;;;;;;;18.11;53.97;100268.63;5051816;28;20679;-82
2022/09/08 08:06:55;;;;;;;9.38;4.35;;;;;;;18.24;53.54;100273.63;5065150;28;20043;-82
2022/09/08 08:09:34;;;;;;;10.45;4.45;;;;;;;18.29;53.85;100259.84;5030985;28;20804;-82
2022/09/08 08:12:23;;;;;;;8.18;4.57;;;;;;;18.31;53.59;100272.00;5048638;28;20059;-82
2022/09/08 08:15:03;;;;;;;10.23;3.97;;;;;;;18.33;53.85;100275.38;5033096;28;20056;-82
2022/09/08 08:18:13;;;;;;;8.43;4.38;;;;;;;18.34;53.78;100274.38;5017551;28;20605;-81
2022/09/08 08:21:13;;;;;;;14.05;4.00;;;;;;;18.36;53.90;100263.56;5053066;28;20066;-82
2022/09/08 08:24:18;;;;;;;13.30;4.68;;;;;;;18.26;54.25;100255.63;5017780;28;20047;-80
2022/09/08 08:27:02;;;;;;;10.63;3.90;;;;;;;18.25;54.18;100259.28;5055888;28;20084;-83
2022/09/08 08:30:02;;;;;;;8.50;5.00;;;;;;;18.30;54.33;100245.53;5023699;28;20120;-83
2022/09/08 08:32:34;;;;;;;13.90;4.55;;;;;;;18.21;54.46;100248.09;5036028;28;20148;-81
2022/09/08 08:35:42;;;;;;;9.45;4.47;;;;;;;18.18;55.39;100244.88;5030901;28;20041;-81
2022/09/08 08:38:45;;;;;;;10.48;4.90;;;;;;;18.12;55.90;100245.47;5022472;28;20056;-82
2022/09/08 08:41:33;;;;;;;12.93;4.60;;;;;;;18.02;56.82;100245.53;5034376;28;20049;-81
2022/09/08 08:44:38;;;;;;;9.70;4.90;;;;;;;18.02;56.47;100248.19;5043438;28;20430;-82
2022/09/08 08:47:47;;;;;;;10.48;4.65;;;;;;;17.96;58.31;100251.44;5064061;28;20076;-83
2022/09/08 08:50:40;;;;;;;15.80;4.28;;;;;;;17.93;58.42;100247.25;5059868;28;20048;-83
2022/09/08 08:53:41;;;;;;;11.25;4.88;;;;;;;18.03;59.09;100238.38;5047948;28;20044;-83
2022/09/08 08:56:34;;;;;;;12.63;5.50;;;;;;;18.02;59.51;100234.03;5044693;28;20044;-83
2022/09/08 08:59:10;;;;;;;11.70;5.45;;;;;;;17.98;61.60;100228.16;5051392;28;20381;-81
2022/09/08 09:01:50;;;;;;;17.15;5.47;;;;;;;17.87;64.17;100221.19;5057668;28;20776;-83
2022/09/08 09:04:45;;;;;;;10.50;5.10;;;;;;;17.89;63.36;100215.75;5018188;28;20075;-80
2022/09/08 09:07:34;;;;;;;8.63;4.78;;;;;;;17.97;62.72;100215.84;5068339;28;20075;-82
2022/09/08 09:10:10;;;;;;;8.98;5.70;;;;;;;17.88;67.48;100214.06;5051678;28;20135;-83
2022/09/08 09:13:07;;;;;;;12.38;5.85;;;;;;;17.88;65.37;100208.75;5040078;28;20106;-82
2022/09/08 09:15:44;;;;;;;14.50;5.97;;;;;;;17.91;70.04;100203.94;5056690;28;20060;-79
2022/09/08 09:18:38;;;;;;;13.90;6.13;;;;;;;17.82;66.42;100196.00;5051664;28;20072;-82
2022/09/08 09:21:30;;;;;;;12.32;6.55;;;;;;;17.85;69.03;100195.72;5064012;28;20056;-81
2022/09/08 09:24:01;;;;;;;11.45;6.25;;;;;;;17.86;70.03;100203.53;5037227;28;20044;-82
2022/09/08 09:26:35;;;;;;;17.38;6.15;;;;;;;17.87;70.93;100188.41;5044059;28;20041;-83
2022/09/08 09:29:02;;;;;;;15.77;6.53;;;;;;;17.89;68.18;100181.97;5036880;28;20075;-81
2022/09/08 09:31:46;;;;;;;14.90;6.43;;;;;;;17.98;73.22;100187.38;5070486;28;20059;-81
2022/09/08 09:34:39;;;;;;;11.18;5.82;;;;;;;17.96;70.03;100176.84;5036803;28;20135;-85
2022/09/08 09:37:24;;;;;;;19.17;6.50;;;;;;;18.03;68.82;100177.94;5037335;28;20049;-83
2022/09/08 09:40:14;;;;;;;16.00;5.75;;;;;;;18.11;69.15;100170.06;5029664;28;20094;-82
2022/09/08 09:42:50;;;;;;;11.85;6.53;;;;;;;18.19;69.79;100164.81;5051348;28;20056;-82
2022/09/08 09:45:41;;;;;;;20.25;6.85;;;;;;;18.19;71.52;100162.16;5053648;28;20139;-82
2022/09/08 09:48:10;;;;;;;14.43;6.57;;;;;;;18.21;72.32;100162.84;5036118;28;20139;-83
2022/09/08 09:51:27;;;;;;;17.60;7.50;;;;;;;18.14;74.26;100164.41;5038383;28;20048;-82
2022/09/08 09:54:30;;;;;;;15.15;7.80;;;;;;;18.18;72.65;100157.78;5046355;28;20049;-83
2022/09/08 09:57:29;;;;;;;10.95;6.18;;;;;;;18.24;71.01;100153.72;5062983;28;20140;-83
2022/09/08 10:00:14;;;;;;;15.65;7.60;;;;;;;18.27;71.69;100156.06;5028550;28;20052;-83
2022/09/08 10:02:54;;;;;;;13.40;7.00;;;;;;;18.23;71.65;100168.00;5044467;28;20101;-82
2022/09/08 10:05:44;;;;;;;15.63;6.68;;;;;;;18.19;72.32;100163.97;5046791;28;20175;-80
2022/09/08 10:08:29;;;;;;;10.43;6.18;;;;;;;18.30;71.78;100176.25;5077931;28;20136;-82
2022/09/08 10:11:10;;;;;;;21.40;7.07;;;;;;;18.28;71.19;100171.06;5063406;28;20095;-83
2022/09/08 10:13:41;;;;;;;15.73;6.70;;;;;;;18.33;69.61;100174.13;5084925;28;20493;-86
2022/09/08 10:16:40;;;;;;;14.98;5.43;;;;;;;18.33;69.68;100175.94;5062442;28;20064;-83
2022/09/08 10:19:10;;;;;;;10.20;6.00;;;;;;;18.33;69.05;100181.28;5025755;28;20058;-82
2022/09/08 10:22:04;;;;;;;13.63;5.90;;;;;;;18.32;69.73;100195.56;5063203;28;20044;-84
2022/09/08 10:24:54;;;;;;;11.45;5.65;;;;;;;18.33;67.78;100200.78;5053938;28;20027;-82
2022/09/08 10:28:03;;;;;;;9.20;5.80;;;;;;;18.36;66.94;100210.28;5069981;28;20095;-84
2022/09/08 10:31:09;;;;;;;14.40;6.60;;;;;;;18.42;66.72;100215.03;5055255;28;20095;-84
2022/09/08 10:34:05;;;;;;;14.65;6.03;;;;;;;18.44;66.56;100213.03;5058095;28;20046;-82
2022/09/08 10:36:57;;;;;;;9.85;5.60;;;;;;;18.45;66.10;100210.19;5048116;28;20077;-82
2022/09/08 10:39:36;;;;;;;8.95;5.80;;;;;;;18.43;66.44;100219.34;5058867;28;20107;-84
2022/09/08 10:42:30;;;;;;;11.13;6.35;;;;;;;18.42;67.24;100241.66;5065430;28;20067;-84
2022/09/08 10:45:36;;;;;;;15.20;6.70;;;;;;;18.38;67.53;100250.94;5055520;28;20088;-83
2022/09/08 10:48:46;;;;;;;12.38;5.15;;;;;;;18.36;68.39;100256.41;5045838;28;20040;-83
2022/09/08 10:51:27;;;;;;;14.50;7.65;;;;;;;18.29;69.78;100230.53;5019157;28;20195;-83
2022/09/08 10:54:34;;;;;;;14.30;6.03;;;;;;;18.12;69.54;100173.56;5071108;28;20054;-84
2022/09/08 10:57:26;;;;;;;16.40;6.90;;;;;;;18.03;70.23;100191.28;5022526;28;20052;-85
2022/09/08 11:00:09;;;;;;;13.50;6.95;;;;;;;18.02;69.84;100202.09;5072819;28;20411;-86
2022/09/08 11:03:13;;;;;;;16.75;6.57;;;;;;;17.95;70.78;100215.97;5040800;28;20056;-83
2022/09/08 11:05:44;;;;;;;12.00;7.35;;;;;;;17.99;72.04;100221.00;5053411;28;20045;-83
2022/09/08 11:08:31;;;;;;;22.50;7.97;;;;;;;17.96;76.09;100219.47;5050005;28;20060;-85
2022/09/08 11:11:33;;;;;;;19.80;8.82;;;;;;;17.79;76.87;100209.63;5055502;28;20051;-86
2022/09/08 11:14:16;;;;;;;12.30;6.88;;;;;;;17.77;74.83;100201.75;5032916;28;20044;-86
2022/09/08 11:17:24;;;;;;;14.90;7.00;;;;;;;17.74;75.75;100196.72;5047804;28;20048;-87
2022/09/08 11:20:08;;;;;;;13.32;6.70;;;;;;;17.88;76.06;100200.75;5033170;28;20093;-83
2022/09/08 11:22:54;;;;;;;15.43;8.93;;;;;;;17.90;78.61;100204.09;5017576;28;20067;-86
2022/09/08 11:25:45;;;;;;;15.88;7.97;;;;;;;17.84;78.54;100200.22;5034930;28;20047;-85
2022/09/08 11:28:22;;;;;;;13.25;7.05;;;;;;;17.83;79.61;100193.22;5055781;28;20562;-85
2022/09/08 11:31:14;;;;;;;13.88;7.68;;;;;;;17.74;79.56;100186.06;5036858;28;20117;-85
2022/09/08 11:34:01;;;;;;;16.23;7.45;;;;;;;17.71;79.28;100192.53;5054023;28;20040;-83
2022/09/08 11:37:01;;;;;;;21.65;8.35;;;;;;;17.71;80.47;100195.19;5036856;28;20052;-85
2022/09/08 11:39:31;;;;;;;17.25;7.60;;;;;;;17.64;82.84;100195.91;5021963;28;20048;-85
2022/09/08 11:42:31;;;;;;;13.93;8.32;;;;;;;17.65;81.70;100198.44;5084153;28;20063;-86
2022/09/08 11:45:28;;;;;;;13.65;8.20;;;;;;;17.63;81.52;100197.72;5036020;28;20468;-85
2022/09/08 11:47:58;;;;;;;13.88;7.63;;;;;;;17.62;80.90;100182.75;5081186;28;20059;-85
2022/09/08 11:50:41;;;;;;;13.05;7.85;;;;;;;17.68;79.99;100174.16;5055623;28;20352;-85
2022/09/08 11:53:32;;;;;;;14.50;7.60;;;;;;;17.66;82.10;100167.34;5056366;28;20059;-85
2022/09/08 11:56:47;;;;;;;18.40;8.30;;;;;;;17.60;82.25;100159.91;5040556;28;20533;-85
2022/09/08 11:59:55;;;;;;;18.38;9.27;;;;;;;17.56;81.82;100159.41;5057706;28;20110;-86
2022/09/08 12:03:14;;;;;;;14.70;8.70;;;;;;;17.62;81.44;100149.97;5046235;28;20037;-85
2022/09/08 12:06:23;;;;;;;15.52;7.93;;;;;;;17.64;81.80;100146.16;5088163;28;20081;-83
2022/09/08 12:09:24;;;;;;;16.83;7.55;;;;;;;17.66;80.29;100146.03;5031080;28;20057;-85
2022/09/08 12:12:19;;;;;;;12.20;7.95;;;;;;;17.76;81.90;100138.88;5056301;28;20060;-85
2022/09/08 12:14:46;;;;;;;14.05;8.05;;;;;;;17.75;82.64;100133.69;5035288;28;20040;-84
2022/09/08 12:17:36;;;;;;;12.10;7.70;;;;;;;17.68;84.87;100128.91;5058355;28;20048;-86
2022/09/08 12:20:41;;;;;;;13.35;7.28;;;;;;;17.72;83.00;100135.63;5027749;28;20044;-85
2022/09/08 12:23:22;;;;;;;11.38;7.97;;;;;;;17.70;82.69;100134.09;5049575;28;20044;-86
2022/09/08 12:26:03;;;;;;;11.35;7.32;;;;;;;17.74;82.57;100127.50;5086193;28;20036;-85
2022/09/08 12:29:20;;;;;;;16.05;8.27;;;;;;;17.80;83.31;100123.44;5037808;28;20036;-86
2022/09/08 12:31:59;;;;;;;12.63;8.10;;;;;;;17.80;83.49;100118.13;5031453;28;20044;-85